Kiester, Minnesota
Current Conditions -  °F | °C
As of 4:13 PM on Sunday 23 Nov 2014 (Local Time) from KAEL Reporting Station
Overcast Overcast  
Wind Chill: 35°   Ceiling: 2400
Heat Index: 41°   Visibility: 10mi
Dew Point: 41°   Wind: 10mph
Humidity: 100%   Direction: 320°NW
Pressure: 29.38"   Gusts: NA
Location:  43.54°N, 93.71°W
Report Text: KAEL 232213Z AUTO 32009KT 10SM SCT010 BKN024 OVC037 05/05 A2938 RMK AO2
Loading
Personal Weather Stations






























Interactive Weather Map New forecast layout! Learn more

10-Day Weather Forecast

Advertisements
Track Severe Weather on mobile